sensor_id;sensor_type;location;lat;lon;timestamp;P1;durP1;ratioP1;P2;durP2;ratioP2
41653;SDS011;30790;52.030;7.110;2022-09-09T00:00:14;2.58;;;1.10;;
41653;SDS011;30790;52.030;7.110;2022-09-09T00:02:43;3.83;;;1.45;;
41653;SDS011;30790;52.030;7.110;2022-09-09T00:05:27;4.40;;;1.70;;
41653;SDS011;30790;52.030;7.110;2022-09-09T00:07:58;2.80;;;1.20;;
41653;SDS011;30790;52.030;7.110;2022-09-09T00:10:39;4.53;;;1.58;;
41653;SDS011;30790;52.030;7.110;2022-09-09T00:15:52;3.58;;;1.38;;
41653;SDS011;30790;52.030;7.110;2022-09-09T00:21:03;4.32;;;1.42;;
41653;SDS011;30790;52.030;7.110;2022-09-09T00:23:36;3.22;;;1.27;;
41653;SDS011;30790;52.030;7.110;2022-09-09T00:26:32;4.60;;;0.95;;
41653;SDS011;30790;52.030;7.110;2022-09-09T00:29:18;4.93;;;0.93;;
41653;SDS011;30790;52.030;7.110;2022-09-09T00:31:54;3.83;;;1.65;;
41653;SDS011;30790;52.030;7.110;2022-09-09T00:34:26;1.10;;;0.90;;
41653;SDS011;30790;52.030;7.110;2022-09-09T00:36:53;4.78;;;1.30;;
41653;SDS011;30790;52.030;7.110;2022-09-09T00:39:33;1.90;;;0.82;;
41653;SDS011;30790;52.030;7.110;2022-09-09T00:42:24;2.92;;;1.23;;
41653;SDS011;30790;52.030;7.110;2022-09-09T00:47:53;2.07;;;0.90;;
41653;SDS011;30790;52.030;7.110;2022-09-09T00:58:36;2.03;;;1.10;;
41653;SDS011;30790;52.030;7.110;2022-09-09T01:03:39;3.72;;;1.35;;
41653;SDS011;30790;52.030;7.110;2022-09-09T01:06:15;3.38;;;1.17;;
41653;SDS011;30790;52.030;7.110;2022-09-09T01:11:41;4.13;;;1.33;;
41653;SDS011;30790;52.030;7.110;2022-09-09T01:14:28;2.58;;;1.20;;
41653;SDS011;30790;52.030;7.110;2022-09-09T01:16:58;3.88;;;1.10;;
41653;SDS011;30790;52.030;7.110;2022-09-09T01:19:52;1.95;;;1.00;;
41653;SDS011;30790;52.030;7.110;2022-09-09T01:22:22;2.65;;;1.10;;
41653;SDS011;30790;52.030;7.110;2022-09-09T01:25:15;3.03;;;1.08;;
41653;SDS011;30790;52.030;7.110;2022-09-09T01:27:42;4.07;;;1.20;;
41653;SDS011;30790;52.030;7.110;2022-09-09T01:30:13;2.03;;;1.10;;
41653;SDS011;30790;52.030;7.110;2022-09-09T01:32:45;1.92;;;0.90;;
41653;SDS011;30790;52.030;7.110;2022-09-09T01:35:14;3.15;;;1.20;;
41653;SDS011;30790;52.030;7.110;2022-09-09T01:37:52;2.40;;;1.02;;
41653;SDS011;30790;52.030;7.110;2022-09-09T01:40:17;4.57;;;1.10;;
41653;SDS011;30790;52.030;7.110;2022-09-09T01:42:44;1.85;;;1.10;;
41653;SDS011;30790;52.030;7.110;2022-09-09T01:45:09;3.10;;;1.10;;
41653;SDS011;30790;52.030;7.110;2022-09-09T01:47:35;1.00;;;0.90;;
41653;SDS011;30790;52.030;7.110;2022-09-09T01:50:00;2.35;;;1.10;;
41653;SDS011;30790;52.030;7.110;2022-09-09T01:52:26;3.63;;;0.80;;
41653;SDS011;30790;52.030;7.110;2022-09-09T01:54:52;3.22;;;0.98;;
41653;SDS011;30790;52.030;7.110;2022-09-09T02:11:12;2.75;;;1.42;;
41653;SDS011;30790;52.030;7.110;2022-09-09T02:13:40;2.15;;;1.08;;
41653;SDS011;30790;52.030;7.110;2022-09-09T02:16:08;1.83;;;1.00;;
41653;SDS011;30790;52.030;7.110;2022-09-09T02:18:40;1.92;;;1.10;;
41653;SDS011;30790;52.030;7.110;2022-09-09T02:21:26;1.70;;;0.95;;
41653;SDS011;30790;52.030;7.110;2022-09-09T02:23:55;2.95;;;1.08;;
41653;SDS011;30790;52.030;7.110;2022-09-09T02:26:24;1.15;;;0.82;;
41653;SDS011;30790;52.030;7.110;2022-09-09T02:28:51;1.23;;;0.90;;
41653;SDS011;30790;52.030;7.110;2022-09-09T02:31:21;2.03;;;1.17;;
41653;SDS011;30790;52.030;7.110;2022-09-09T02:33:54;1.42;;;0.50;;
41653;SDS011;30790;52.030;7.110;2022-09-09T02:36:24;2.13;;;0.85;;
41653;SDS011;30790;52.030;7.110;2022-09-09T02:38:54;1.88;;;0.80;;
41653;SDS011;30790;52.030;7.110;2022-09-09T02:41:22;1.17;;;0.80;;
41653;SDS011;30790;52.030;7.110;2022-09-09T02:43:52;2.28;;;1.40;;
41653;SDS011;30790;52.030;7.110;2022-09-09T02:49:13;2.28;;;0.80;;
41653;SDS011;30790;52.030;7.110;2022-09-09T02:51:55;1.40;;;1.15;;
41653;SDS011;30790;52.030;7.110;2022-09-09T02:59:35;4.85;;;1.13;;
41653;SDS011;30790;52.030;7.110;2022-09-09T03:02:01;3.55;;;1.00;;
41653;SDS011;30790;52.030;7.110;2022-09-09T03:04:26;3.42;;;0.98;;
41653;SDS011;30790;52.030;7.110;2022-09-09T03:06:52;1.67;;;0.90;;
41653;SDS011;30790;52.030;7.110;2022-09-09T03:09:17;1.80;;;0.70;;
41653;SDS011;30790;52.030;7.110;2022-09-09T03:11:42;1.67;;;0.90;;
41653;SDS011;30790;52.030;7.110;2022-09-09T03:14:07;1.27;;;0.82;;
41653;SDS011;30790;52.030;7.110;2022-09-09T03:16:33;1.83;;;0.85;;
41653;SDS011;30790;52.030;7.110;2022-09-09T03:18:59;2.45;;;0.63;;
41653;SDS011;30790;52.030;7.110;2022-09-09T03:21:25;2.42;;;1.10;;
41653;SDS011;30790;52.030;7.110;2022-09-09T03:23:50;1.00;;;0.60;;
41653;SDS011;30790;52.030;7.110;2022-09-09T03:26:16;2.53;;;0.60;;
41653;SDS011;30790;52.030;7.110;2022-09-09T03:28:41;1.15;;;0.93;;
41653;SDS011;30790;52.030;7.110;2022-09-09T03:31:07;1.05;;;0.63;;
41653;SDS011;30790;52.030;7.110;2022-09-09T03:33:35;1.02;;;0.85;;
41653;SDS011;30790;52.030;7.110;2022-09-09T03:36:02;1.50;;;0.90;;
41653;SDS011;30790;52.030;7.110;2022-09-09T03:38:28;1.35;;;0.80;;
41653;SDS011;30790;52.030;7.110;2022-09-09T03:40:55;2.97;;;0.95;;
41653;SDS011;30790;52.030;7.110;2022-09-09T03:43:22;1.90;;;0.70;;
41653;SDS011;30790;52.030;7.110;2022-09-09T03:45:48;1.80;;;0.98;;
41653;SDS011;30790;52.030;7.110;2022-09-09T03:48:14;0.95;;;0.88;;
41653;SDS011;30790;52.030;7.110;2022-09-09T03:50:44;1.25;;;0.60;;
41653;SDS011;30790;52.030;7.110;2022-09-09T03:53:10;3.13;;;0.80;;
41653;SDS011;30790;52.030;7.110;2022-09-09T03:55:35;3.73;;;1.03;;
41653;SDS011;30790;52.030;7.110;2022-09-09T03:58:01;1.48;;;0.80;;
41653;SDS011;30790;52.030;7.110;2022-09-09T04:00:26;2.15;;;0.85;;
41653;SDS011;30790;52.030;7.110;2022-09-09T04:02:51;1.05;;;0.70;;
41653;SDS011;30790;52.030;7.110;2022-09-09T04:05:19;1.85;;;0.75;;
41653;SDS011;30790;52.030;7.110;2022-09-09T04:07:44;2.28;;;0.80;;
41653;SDS011;30790;52.030;7.110;2022-09-09T04:10:10;1.40;;;0.70;;
41653;SDS011;30790;52.030;7.110;2022-09-09T04:12:35;2.08;;;0.93;;
41653;SDS011;30790;52.030;7.110;2022-09-09T04:15:00;1.42;;;0.80;;
41653;SDS011;30790;52.030;7.110;2022-09-09T04:17:27;1.48;;;0.82;;
41653;SDS011;30790;52.030;7.110;2022-09-09T04:19:52;3.53;;;1.10;;
41653;SDS011;30790;52.030;7.110;2022-09-09T04:22:17;1.33;;;0.90;;
41653;SDS011;30790;52.030;7.110;2022-09-09T04:24:42;1.13;;;0.60;;
41653;SDS011;30790;52.030;7.110;2022-09-09T04:27:08;0.97;;;0.67;;
41653;SDS011;30790;52.030;7.110;2022-09-09T04:29:33;1.00;;;0.68;;
41653;SDS011;30790;52.030;7.110;2022-09-09T04:31:58;2.83;;;0.80;;
41653;SDS011;30790;52.030;7.110;2022-09-09T04:34:24;1.35;;;0.90;;
41653;SDS011;30790;52.030;7.110;2022-09-09T04:36:50;2.85;;;0.80;;
41653;SDS011;30790;52.030;7.110;2022-09-09T04:39:16;2.67;;;0.70;;
41653;SDS011;30790;52.030;7.110;2022-09-09T04:41:42;1.33;;;0.70;;
41653;SDS011;30790;52.030;7.110;2022-09-09T04:44:07;2.35;;;0.93;;
41653;SDS011;30790;52.030;7.110;2022-09-09T04:46:33;10.23;;;1.30;;
41653;SDS011;30790;52.030;7.110;2022-09-09T04:48:59;6.97;;;1.05;;
41653;SDS011;30790;52.030;7.110;2022-09-09T04:51:24;2.40;;;0.60;;
41653;SDS011;30790;52.030;7.110;2022-09-09T04:53:50;1.98;;;1.00;;
41653;SDS011;30790;52.030;7.110;2022-09-09T04:56:16;6.53;;;1.15;;
41653;SDS011;30790;52.030;7.110;2022-09-09T04:58:42;13.25;;;1.13;;
41653;SDS011;30790;52.030;7.110;2022-09-09T05:01:10;2.88;;;1.45;;
41653;SDS011;30790;52.030;7.110;2022-09-09T05:03:37;5.00;;;1.13;;
41653;SDS011;30790;52.030;7.110;2022-09-09T05:06:23;3.35;;;0.68;;
41653;SDS011;30790;52.030;7.110;2022-09-09T05:08:48;2.33;;;0.73;;
41653;SDS011;30790;52.030;7.110;2022-09-09T05:13:48;8.13;;;1.20;;
41653;SDS011;30790;52.030;7.110;2022-09-09T05:16:15;4.05;;;1.30;;
41653;SDS011;30790;52.030;7.110;2022-09-09T05:18:40;4.25;;;1.08;;
41653;SDS011;30790;52.030;7.110;2022-09-09T05:21:07;4.00;;;1.23;;
41653;SDS011;30790;52.030;7.110;2022-09-09T05:23:35;4.35;;;1.05;;
41653;SDS011;30790;52.030;7.110;2022-09-09T05:26:02;2.67;;;0.90;;
41653;SDS011;30790;52.030;7.110;2022-09-09T05:28:28;5.80;;;1.45;;
41653;SDS011;30790;52.030;7.110;2022-09-09T05:30:57;4.97;;;1.67;;
41653;SDS011;30790;52.030;7.110;2022-09-09T05:33:24;4.15;;;1.13;;
41653;SDS011;30790;52.030;7.110;2022-09-09T05:35:57;2.75;;;0.77;;
41653;SDS011;30790;52.030;7.110;2022-09-09T05:38:26;3.88;;;1.27;;
41653;SDS011;30790;52.030;7.110;2022-09-09T05:40:55;6.15;;;1.20;;
41653;SDS011;30790;52.030;7.110;2022-09-09T05:43:21;4.13;;;1.70;;
41653;SDS011;30790;52.030;7.110;2022-09-09T05:45:47;7.82;;;2.00;;
41653;SDS011;30790;52.030;7.110;2022-09-09T05:48:14;5.93;;;1.80;;
41653;SDS011;30790;52.030;7.110;2022-09-09T05:50:41;11.73;;;2.20;;
41653;SDS011;30790;52.030;7.110;2022-09-09T05:53:07;4.50;;;1.70;;
41653;SDS011;30790;52.030;7.110;2022-09-09T05:55:33;7.78;;;2.10;;
41653;SDS011;30790;52.030;7.110;2022-09-09T05:57:58;7.97;;;1.50;;
41653;SDS011;30790;52.030;7.110;2022-09-09T06:00:23;9.37;;;2.07;;
41653;SDS011;30790;52.030;7.110;2022-09-09T06:02:52;7.22;;;1.70;;
41653;SDS011;30790;52.030;7.110;2022-09-09T06:05:18;3.42;;;1.48;;
41653;SDS011;30790;52.030;7.110;2022-09-09T06:07:43;6.65;;;1.85;;
41653;SDS011;30790;52.030;7.110;2022-09-09T06:10:09;4.40;;;1.58;;
41653;SDS011;30790;52.030;7.110;2022-09-09T06:12:35;6.60;;;1.70;;
41653;SDS011;30790;52.030;7.110;2022-09-09T06:15:00;6.88;;;1.80;;
41653;SDS011;30790;52.030;7.110;2022-09-09T06:17:26;2.88;;;1.55;;
41653;SDS011;30790;52.030;7.110;2022-09-09T06:19:51;5.15;;;1.65;;
41653;SDS011;30790;52.030;7.110;2022-09-09T06:22:17;9.32;;;1.70;;
41653;SDS011;30790;52.030;7.110;2022-09-09T06:24:42;10.98;;;2.17;;
41653;SDS011;30790;52.030;7.110;2022-09-09T06:27:08;5.75;;;1.83;;
41653;SDS011;30790;52.030;7.110;2022-09-09T06:29:33;8.68;;;1.90;;
41653;SDS011;30790;52.030;7.110;2022-09-09T06:31:58;5.75;;;1.83;;
41653;SDS011;30790;52.030;7.110;2022-09-09T06:34:24;4.30;;;1.65;;
41653;SDS011;30790;52.030;7.110;2022-09-09T06:36:49;7.75;;;2.13;;
41653;SDS011;30790;52.030;7.110;2022-09-09T06:39:14;3.53;;;1.95;;
41653;SDS011;30790;52.030;7.110;2022-09-09T06:41:40;4.28;;;1.65;;
41653;SDS011;30790;52.030;7.110;2022-09-09T06:44:07;9.32;;;2.65;;
41653;SDS011;30790;52.030;7.110;2022-09-09T06:46:32;7.43;;;2.53;;
41653;SDS011;30790;52.030;7.110;2022-09-09T06:48:58;6.32;;;2.40;;
41653;SDS011;30790;52.030;7.110;2022-09-09T06:51:34;10.45;;;2.75;;
41653;SDS011;30790;52.030;7.110;2022-09-09T06:54:01;3.95;;;1.80;;
41653;SDS011;30790;52.030;7.110;2022-09-09T06:56:35;8.00;;;2.40;;
41653;SDS011;30790;52.030;7.110;2022-09-09T06:59:02;5.72;;;2.22;;
41653;SDS011;30790;52.030;7.110;2022-09-09T07:01:30;8.98;;;2.13;;
41653;SDS011;30790;52.030;7.110;2022-09-09T07:03:58;6.63;;;2.63;;
41653;SDS011;30790;52.030;7.110;2022-09-09T07:06:31;10.48;;;2.35;;
41653;SDS011;30790;52.030;7.110;2022-09-09T07:11:26;8.02;;;2.55;;
41653;SDS011;30790;52.030;7.110;2022-09-09T07:13:53;16.30;;;2.83;;
41653;SDS011;30790;52.030;7.110;2022-09-09T07:16:20;7.53;;;2.83;;
41653;SDS011;30790;52.030;7.110;2022-09-09T07:18:48;8.95;;;2.10;;
41653;SDS011;30790;52.030;7.110;2022-09-09T07:21:13;11.35;;;2.35;;
41653;SDS011;30790;52.030;7.110;2022-09-09T07:23:39;8.90;;;2.65;;
41653;SDS011;30790;52.030;7.110;2022-09-09T07:26:13;8.63;;;2.13;;
41653;SDS011;30790;52.030;7.110;2022-09-09T07:28:40;7.88;;;2.38;;
41653;SDS011;30790;52.030;7.110;2022-09-09T07:31:06;7.30;;;2.00;;
41653;SDS011;30790;52.030;7.110;2022-09-09T07:33:38;7.45;;;2.30;;
41653;SDS011;30790;52.030;7.110;2022-09-09T07:36:07;8.48;;;2.17;;
41653;SDS011;30790;52.030;7.110;2022-09-09T07:38:41;9.90;;;2.13;;
41653;SDS011;30790;52.030;7.110;2022-09-09T07:41:08;10.50;;;2.03;;
41653;SDS011;30790;52.030;7.110;2022-09-09T07:43:37;9.00;;;1.92;;
41653;SDS011;30790;52.030;7.110;2022-09-09T07:46:04;10.95;;;2.67;;
41653;SDS011;30790;52.030;7.110;2022-09-09T07:48:30;11.60;;;2.38;;
41653;SDS011;30790;52.030;7.110;2022-09-09T07:51:06;5.65;;;2.00;;
41653;SDS011;30790;52.030;7.110;2022-09-09T07:53:37;24.38;;;4.10;;
41653;SDS011;30790;52.030;7.110;2022-09-09T07:56:07;19.50;;;3.00;;
41653;SDS011;30790;52.030;7.110;2022-09-09T07:58:35;15.93;;;2.92;;
41653;SDS011;30790;52.030;7.110;2022-09-09T08:01:05;9.80;;;2.10;;
41653;SDS011;30790;52.030;7.110;2022-09-09T08:03:32;9.73;;;2.20;;
41653;SDS011;30790;52.030;7.110;2022-09-09T08:06:05;5.63;;;2.33;;
41653;SDS011;30790;52.030;7.110;2022-09-09T08:08:33;11.25;;;2.50;;
41653;SDS011;30790;52.030;7.110;2022-09-09T08:11:06;8.88;;;2.00;;
41653;SDS011;30790;52.030;7.110;2022-09-09T08:13:36;8.80;;;2.50;;
41653;SDS011;30790;52.030;7.110;2022-09-09T08:16:04;9.77;;;2.58;;
41653;SDS011;30790;52.030;7.110;2022-09-09T08:18:30;7.20;;;2.25;;
41653;SDS011;30790;52.030;7.110;2022-09-09T08:20:56;13.77;;;2.55;;
41653;SDS011;30790;52.030;7.110;2022-09-09T08:23:21;6.90;;;2.53;;
41653;SDS011;30790;52.030;7.110;2022-09-09T08:25:46;6.80;;;2.57;;
41653;SDS011;30790;52.030;7.110;2022-09-09T08:28:13;8.63;;;2.42;;
41653;SDS011;30790;52.030;7.110;2022-09-09T08:30:39;8.10;;;2.10;;
41653;SDS011;30790;52.030;7.110;2022-09-09T08:33:04;5.20;;;2.17;;
41653;SDS011;30790;52.030;7.110;2022-09-09T08:35:30;9.60;;;2.35;;
41653;SDS011;30790;52.030;7.110;2022-09-09T08:37:57;12.10;;;3.15;;
41653;SDS011;30790;52.030;7.110;2022-09-09T08:40:25;9.23;;;2.75;;
41653;SDS011;30790;52.030;7.110;2022-09-09T08:45:29;8.35;;;1.90;;
41653;SDS011;30790;52.030;7.110;2022-09-09T08:50:37;10.05;;;2.67;;
41653;SDS011;30790;52.030;7.110;2022-09-09T08:55:45;6.47;;;2.25;;
41653;SDS011;30790;52.030;7.110;2022-09-09T08:58:47;9.00;;;2.85;;
41653;SDS011;30790;52.030;7.110;2022-09-09T09:01:36;11.45;;;2.15;;
41653;SDS011;30790;52.030;7.110;2022-09-09T09:12:19;12.05;;;2.33;;
41653;SDS011;30790;52.030;7.110;2022-09-09T09:14:48;10.63;;;3.00;;
41653;SDS011;30790;52.030;7.110;2022-09-09T09:17:14;11.45;;;2.20;;
41653;SDS011;30790;52.030;7.110;2022-09-09T09:19:44;13.82;;;2.63;;
41653;SDS011;30790;52.030;7.110;2022-09-09T09:25:27;14.43;;;2.83;;
41653;SDS011;30790;52.030;7.110;2022-09-09T09:28:11;16.67;;;2.72;;
41653;SDS011;30790;52.030;7.110;2022-09-09T09:33:43;10.02;;;2.50;;
41653;SDS011;30790;52.030;7.110;2022-09-09T09:36:11;14.73;;;3.33;;
41653;SDS011;30790;52.030;7.110;2022-09-09T09:38:40;11.65;;;3.00;;
41653;SDS011;30790;52.030;7.110;2022-09-09T09:41:28;15.70;;;3.55;;
41653;SDS011;30790;52.030;7.110;2022-09-09T09:43:59;19.52;;;3.80;;
41653;SDS011;30790;52.030;7.110;2022-09-09T09:46:25;10.20;;;3.13;;
41653;SDS011;30790;52.030;7.110;2022-09-09T09:49:02;9.98;;;2.90;;
41653;SDS011;30790;52.030;7.110;2022-09-09T09:51:31;9.90;;;2.90;;
41653;SDS011;30790;52.030;7.110;2022-09-09T09:54:08;15.90;;;3.58;;
41653;SDS011;30790;52.030;7.110;2022-09-09T09:56:43;17.00;;;3.25;;
41653;SDS011;30790;52.030;7.110;2022-09-09T10:04:41;12.65;;;2.97;;
41653;SDS011;30790;52.030;7.110;2022-09-09T10:07:10;11.18;;;2.83;;
41653;SDS011;30790;52.030;7.110;2022-09-09T10:09:42;11.82;;;2.42;;
41653;SDS011;30790;52.030;7.110;2022-09-09T10:12:17;10.95;;;2.45;;
41653;SDS011;30790;52.030;7.110;2022-09-09T10:17:32;20.35;;;2.88;;
41653;SDS011;30790;52.030;7.110;2022-09-09T10:22:35;25.00;;;4.30;;
41653;SDS011;30790;52.030;7.110;2022-09-09T10:36:23;7.63;;;2.10;;
41653;SDS011;30790;52.030;7.110;2022-09-09T10:42:14;7.07;;;2.10;;
41653;SDS011;30790;52.030;7.110;2022-09-09T10:44:45;7.65;;;2.20;;
41653;SDS011;30790;52.030;7.110;2022-09-09T10:50:03;10.60;;;2.20;;
41653;SDS011;30790;52.030;7.110;2022-09-09T10:52:50;7.50;;;2.53;;
41653;SDS011;30790;52.030;7.110;2022-09-09T10:55:27;12.57;;;2.40;;
41653;SDS011;30790;52.030;7.110;2022-09-09T10:58:03;10.27;;;2.10;;
41653;SDS011;30790;52.030;7.110;2022-09-09T11:00:35;16.00;;;2.53;;
41653;SDS011;30790;52.030;7.110;2022-09-09T11:03:05;6.68;;;1.88;;
41653;SDS011;30790;52.030;7.110;2022-09-09T11:05:42;10.85;;;2.70;;
41653;SDS011;30790;52.030;7.110;2022-09-09T11:08:12;8.63;;;1.67;;
41653;SDS011;30790;52.030;7.110;2022-09-09T11:10:44;6.75;;;2.67;;
41653;SDS011;30790;52.030;7.110;2022-09-09T11:13:20;11.73;;;1.52;;
41653;SDS011;30790;52.030;7.110;2022-09-09T11:15:52;6.45;;;2.10;;
41653;SDS011;30790;52.030;7.110;2022-09-09T11:18:23;8.63;;;1.85;;
41653;SDS011;30790;52.030;7.110;2022-09-09T11:20:49;6.90;;;1.90;;
41653;SDS011;30790;52.030;7.110;2022-09-09T11:23:22;12.48;;;2.00;;
41653;SDS011;30790;52.030;7.110;2022-09-09T11:25:54;13.38;;;2.63;;
41653;SDS011;30790;52.030;7.110;2022-09-09T11:28:45;5.65;;;1.73;;
41653;SDS011;30790;52.030;7.110;2022-09-09T11:31:21;12.32;;;1.83;;
41653;SDS011;30790;52.030;7.110;2022-09-09T11:37:18;9.77;;;1.98;;
41653;SDS011;30790;52.030;7.110;2022-09-09T11:40:25;9.27;;;2.13;;
41653;SDS011;30790;52.030;7.110;2022-09-09T11:43:04;12.38;;;2.42;;
41653;SDS011;30790;52.030;7.110;2022-09-09T11:45:30;12.32;;;2.22;;
41653;SDS011;30790;52.030;7.110;2022-09-09T11:47:59;10.68;;;1.83;;
41653;SDS011;30790;52.030;7.110;2022-09-09T11:52:51;14.63;;;2.50;;
41653;SDS011;30790;52.030;7.110;2022-09-09T11:55:48;37.35;;;3.42;;
41653;SDS011;30790;52.030;7.110;2022-09-09T11:58:26;11.27;;;2.97;;
41653;SDS011;30790;52.030;7.110;2022-09-09T12:00:57;27.35;;;3.20;;
41653;SDS011;30790;52.030;7.110;2022-09-09T12:06:27;17.80;;;2.77;;
41653;SDS011;30790;52.030;7.110;2022-09-09T12:11:45;13.55;;;2.50;;
41653;SDS011;30790;52.030;7.110;2022-09-09T12:14:35;13.02;;;2.45;;
41653;SDS011;30790;52.030;7.110;2022-09-09T12:17:09;26.65;;;2.78;;
41653;SDS011;30790;52.030;7.110;2022-09-09T12:19:40;19.42;;;2.50;;
41653;SDS011;30790;52.030;7.110;2022-09-09T12:22:19;13.02;;;1.95;;
41653;SDS011;30790;52.030;7.110;2022-09-09T12:24:48;10.95;;;2.45;;
41653;SDS011;30790;52.030;7.110;2022-09-09T12:30:34;8.33;;;2.00;;
41653;SDS011;30790;52.030;7.110;2022-09-09T12:33:11;4.03;;;1.85;;
41653;SDS011;30790;52.030;7.110;2022-09-09T12:35:38;7.30;;;1.70;;
41653;SDS011;30790;52.030;7.110;2022-09-09T12:38:04;10.50;;;1.92;;
41653;SDS011;30790;52.030;7.110;2022-09-09T12:40:33;10.55;;;1.73;;
41653;SDS011;30790;52.030;7.110;2022-09-09T12:43:00;6.32;;;1.92;;
41653;SDS011;30790;52.030;7.110;2022-09-09T12:45:47;5.03;;;1.70;;
41653;SDS011;30790;52.030;7.110;2022-09-09T12:48:15;10.68;;;1.90;;
41653;SDS011;30790;52.030;7.110;2022-09-09T12:50:50;13.05;;;1.85;;
41653;SDS011;30790;52.030;7.110;2022-09-09T12:53:21;14.40;;;2.17;;
41653;SDS011;30790;52.030;7.110;2022-09-09T12:56:06;5.43;;;1.80;;
41653;SDS011;30790;52.030;7.110;2022-09-09T12:58:36;7.32;;;1.77;;
41653;SDS011;30790;52.030;7.110;2022-09-09T13:01:03;5.22;;;1.60;;
41653;SDS011;30790;52.030;7.110;2022-09-09T13:03:31;6.07;;;1.65;;
41653;SDS011;30790;52.030;7.110;2022-09-09T13:05:58;8.25;;;1.85;;
41653;SDS011;30790;52.030;7.110;2022-09-09T13:08:35;5.65;;;1.85;;
41653;SDS011;30790;52.030;7.110;2022-09-09T13:11:02;5.47;;;1.88;;
41653;SDS011;30790;52.030;7.110;2022-09-09T13:13:36;4.72;;;1.60;;
41653;SDS011;30790;52.030;7.110;2022-09-09T13:16:04;7.47;;;2.00;;
41653;SDS011;30790;52.030;7.110;2022-09-09T13:18:34;6.70;;;1.52;;
41653;SDS011;30790;52.030;7.110;2022-09-09T13:21:01;7.60;;;1.58;;
41653;SDS011;30790;52.030;7.110;2022-09-09T13:23:28;6.75;;;1.90;;
41653;SDS011;30790;52.030;7.110;2022-09-09T13:25:56;8.35;;;2.05;;
41653;SDS011;30790;52.030;7.110;2022-09-09T13:33:33;5.13;;;1.50;;
41653;SDS011;30790;52.030;7.110;2022-09-09T13:39:16;7.97;;;1.73;;
41653;SDS011;30790;52.030;7.110;2022-09-09T13:43:57;6.28;;;1.73;;
41653;SDS011;30790;52.030;7.110;2022-09-09T13:46:32;7.22;;;2.28;;
41653;SDS011;30790;52.030;7.110;2022-09-09T13:49:01;4.07;;;1.40;;
41653;SDS011;30790;52.030;7.110;2022-09-09T13:51:48;6.85;;;1.42;;
41653;SDS011;30790;52.030;7.110;2022-09-09T13:54:16;6.18;;;1.48;;
41653;SDS011;30790;52.030;7.110;2022-09-09T13:56:43;6.88;;;1.77;;
41653;SDS011;30790;52.030;7.110;2022-09-09T13:59:10;8.50;;;2.17;;
41653;SDS011;30790;52.030;7.110;2022-09-09T14:01:40;6.40;;;1.65;;
41653;SDS011;30790;52.030;7.110;2022-09-09T14:04:05;4.28;;;1.38;;
41653;SDS011;30790;52.030;7.110;2022-09-09T14:06:31;6.40;;;1.98;;
41653;SDS011;30790;52.030;7.110;2022-09-09T14:08:57;4.70;;;1.75;;
41653;SDS011;30790;52.030;7.110;2022-09-09T14:11:22;10.48;;;1.73;;
41653;SDS011;30790;52.030;7.110;2022-09-09T14:13:48;10.52;;;1.90;;
41653;SDS011;30790;52.030;7.110;2022-09-09T14:16:15;10.23;;;1.80;;
41653;SDS011;30790;52.030;7.110;2022-09-09T14:18:42;6.50;;;1.50;;
41653;SDS011;30790;52.030;7.110;2022-09-09T14:21:08;10.85;;;1.75;;
41653;SDS011;30790;52.030;7.110;2022-09-09T14:23:34;11.70;;;2.70;;
41653;SDS011;30790;52.030;7.110;2022-09-09T14:25:59;8.55;;;2.20;;
41653;SDS011;30790;52.030;7.110;2022-09-09T14:28:25;9.65;;;2.05;;
41653;SDS011;30790;52.030;7.110;2022-09-09T14:30:50;10.98;;;1.70;;
41653;SDS011;30790;52.030;7.110;2022-09-09T14:33:15;6.75;;;1.50;;
41653;SDS011;30790;52.030;7.110;2022-09-09T14:35:41;11.07;;;1.40;;
41653;SDS011;30790;52.030;7.110;2022-09-09T14:38:07;11.25;;;1.90;;
41653;SDS011;30790;52.030;7.110;2022-09-09T14:40:34;4.35;;;1.40;;
41653;SDS011;30790;52.030;7.110;2022-09-09T14:43:01;14.23;;;2.10;;
41653;SDS011;30790;52.030;7.110;2022-09-09T14:45:27;3.38;;;1.38;;
41653;SDS011;30790;52.030;7.110;2022-09-09T14:47:53;5.03;;;1.48;;
41653;SDS011;30790;52.030;7.110;2022-09-09T14:50:19;5.95;;;1.42;;
41653;SDS011;30790;52.030;7.110;2022-09-09T14:52:45;4.32;;;1.40;;
41653;SDS011;30790;52.030;7.110;2022-09-09T14:55:11;6.05;;;1.73;;
41653;SDS011;30790;52.030;7.110;2022-09-09T14:57:37;3.95;;;1.30;;
41653;SDS011;30790;52.030;7.110;2022-09-09T15:00:04;4.13;;;1.60;;
41653;SDS011;30790;52.030;7.110;2022-09-09T15:02:31;3.90;;;1.58;;
41653;SDS011;30790;52.030;7.110;2022-09-09T15:04:56;5.28;;;1.42;;
41653;SDS011;30790;52.030;7.110;2022-09-09T15:07:24;3.08;;;1.27;;
41653;SDS011;30790;52.030;7.110;2022-09-09T15:09:50;8.43;;;1.83;;
41653;SDS011;30790;52.030;7.110;2022-09-09T15:12:17;5.72;;;1.30;;
41653;SDS011;30790;52.030;7.110;2022-09-09T15:14:43;11.82;;;2.20;;
41653;SDS011;30790;52.030;7.110;2022-09-09T15:17:09;10.15;;;1.98;;
41653;SDS011;30790;52.030;7.110;2022-09-09T15:19:34;6.40;;;1.92;;
41653;SDS011;30790;52.030;7.110;2022-09-09T15:22:01;11.65;;;2.47;;
41653;SDS011;30790;52.030;7.110;2022-09-09T15:24:27;4.28;;;1.73;;
41653;SDS011;30790;52.030;7.110;2022-09-09T15:26:52;4.27;;;1.60;;
41653;SDS011;30790;52.030;7.110;2022-09-09T15:29:18;5.53;;;1.52;;
41653;SDS011;30790;52.030;7.110;2022-09-09T15:31:44;6.85;;;1.95;;
41653;SDS011;30790;52.030;7.110;2022-09-09T15:34:09;6.47;;;1.50;;
41653;SDS011;30790;52.030;7.110;2022-09-09T15:36:41;3.20;;;1.17;;
41653;SDS011;30790;52.030;7.110;2022-09-09T15:39:11;6.63;;;1.23;;
41653;SDS011;30790;52.030;7.110;2022-09-09T15:41:40;6.63;;;1.63;;
41653;SDS011;30790;52.030;7.110;2022-09-09T15:44:09;6.30;;;1.80;;
41653;SDS011;30790;52.030;7.110;2022-09-09T15:46:40;4.60;;;1.80;;
41653;SDS011;30790;52.030;7.110;2022-09-09T15:49:20;4.40;;;1.48;;
41653;SDS011;30790;52.030;7.110;2022-09-09T15:51:54;7.60;;;1.60;;
41653;SDS011;30790;52.030;7.110;2022-09-09T15:54:22;10.02;;;1.90;;
41653;SDS011;30790;52.030;7.110;2022-09-09T15:56:53;9.50;;;1.70;;
41653;SDS011;30790;52.030;7.110;2022-09-09T15:59:21;8.90;;;2.03;;
41653;SDS011;30790;52.030;7.110;2022-09-09T16:01:48;10.50;;;2.00;;
41653;SDS011;30790;52.030;7.110;2022-09-09T16:04:16;3.55;;;1.38;;
41653;SDS011;30790;52.030;7.110;2022-09-09T16:06:50;5.68;;;1.30;;
41653;SDS011;30790;52.030;7.110;2022-09-09T16:09:19;4.57;;;1.50;;
41653;SDS011;30790;52.030;7.110;2022-09-09T16:11:45;7.30;;;1.48;;
41653;SDS011;30790;52.030;7.110;2022-09-09T16:14:12;7.72;;;1.80;;
41653;SDS011;30790;52.030;7.110;2022-09-09T16:16:38;5.95;;;1.77;;
41653;SDS011;30790;52.030;7.110;2022-09-09T16:19:04;4.20;;;1.60;;
41653;SDS011;30790;52.030;7.110;2022-09-09T16:21:33;4.72;;;1.50;;
41653;SDS011;30790;52.030;7.110;2022-09-09T16:24:00;7.57;;;1.33;;
41653;SDS011;30790;52.030;7.110;2022-09-09T16:26:29;13.52;;;2.13;;
41653;SDS011;30790;52.030;7.110;2022-09-09T16:28:57;4.85;;;1.33;;
41653;SDS011;30790;52.030;7.110;2022-09-09T16:31:24;2.97;;;1.40;;
41653;SDS011;30790;52.030;7.110;2022-09-09T16:33:51;4.95;;;1.60;;
41653;SDS011;30790;52.030;7.110;2022-09-09T16:36:18;2.55;;;0.90;;
41653;SDS011;30790;52.030;7.110;2022-09-09T16:38:44;8.90;;;1.95;;
41653;SDS011;30790;52.030;7.110;2022-09-09T16:41:10;7.38;;;1.45;;
41653;SDS011;30790;52.030;7.110;2022-09-09T16:43:37;7.95;;;1.52;;
41653;SDS011;30790;52.030;7.110;2022-09-09T16:46:03;8.40;;;1.75;;
41653;SDS011;30790;52.030;7.110;2022-09-09T16:48:35;5.00;;;1.40;;
41653;SDS011;30790;52.030;7.110;2022-09-09T16:51:01;4.82;;;1.55;;
41653;SDS011;30790;52.030;7.110;2022-09-09T16:53:28;7.32;;;1.60;;
41653;SDS011;30790;52.030;7.110;2022-09-09T16:55:54;10.20;;;1.77;;
41653;SDS011;30790;52.030;7.110;2022-09-09T16:58:19;6.13;;;1.40;;
41653;SDS011;30790;52.030;7.110;2022-09-09T17:00:44;4.80;;;1.40;;
41653;SDS011;30790;52.030;7.110;2022-09-09T17:03:14;8.13;;;1.85;;